createdAt,value
2023-05-07T00:07:02.408Z,77147.41
2023-05-07T00:14:36.391Z,77147.41
2023-05-07T00:22:11.974Z,77153.53
2023-05-07T00:29:45.864Z,77153.53
2023-05-07T00:37:21.133Z,77147.41
2023-05-07T00:44:55.126Z,77145.38
2023-05-07T00:52:32.005Z,77133.13
2023-05-07T01:00:07.014Z,77137.19
2023-05-07T01:07:44.443Z,77129.03
2023-05-07T01:15:19.124Z,77133.13
2023-05-07T01:22:55.601Z,77129.03
2023-05-07T01:30:30.314Z,77129.03
2023-05-07T01:38:07.232Z,77127.00
2023-05-07T01:45:42.473Z,77129.03
2023-05-07T02:01:10.381Z,77129.03
2023-05-07T02:08:45.826Z,77135.16
2023-05-07T02:16:20.463Z,77143.31
2023-05-07T02:23:55.873Z,77147.41
2023-05-07T02:31:29.620Z,77159.66
2023-05-07T02:39:05.794Z,77163.75
2023-05-07T02:46:39.759Z,77167.81
2023-05-07T02:54:15.242Z,77180.06
2023-05-07T03:01:49.735Z,77184.16
2023-05-07T03:09:25.428Z,77188.22
2023-05-07T03:16:59.243Z,77186.19
2023-05-07T03:24:34.429Z,77184.16
2023-05-07T03:32:08.281Z,77190.28
2023-05-07T03:39:43.575Z,77190.28
2023-05-07T03:47:17.544Z,77198.44
2023-05-07T03:54:52.815Z,77192.31
2023-05-07T04:10:19.378Z,77202.53
2023-05-07T04:17:53.341Z,77210.69
2023-05-07T04:25:28.758Z,77220.91
2023-05-07T04:33:02.618Z,77231.13
2023-05-07T04:40:40.017Z,77235.19
2023-05-07T04:48:15.846Z,77243.38
2023-05-07T04:55:51.376Z,77249.50
2023-05-07T05:03:25.426Z,77249.50
2023-05-07T05:18:53.236Z,77253.56
2023-05-07T05:26:28.429Z,77247.44
2023-05-07T05:34:02.349Z,77245.41
2023-05-07T05:49:29.583Z,77243.38
2023-05-07T05:57:05.254Z,77239.28
2023-05-07T06:04:39.341Z,77233.16
2023-05-07T06:12:14.731Z,77212.75
2023-05-07T06:19:48.521Z,77204.56
2023-05-07T06:27:23.875Z,77202.53
2023-05-07T06:34:57.670Z,77208.66
2023-05-07T06:42:33.928Z,77202.53
2023-05-07T06:50:09.960Z,77198.44
2023-05-07T06:57:45.384Z,77180.06
2023-05-07T07:05:19.338Z,77163.75
2023-05-07T07:12:55.252Z,77155.56
2023-05-07T07:20:29.095Z,77147.41
2023-05-07T07:28:04.459Z,77131.06
2023-05-07T07:35:38.451Z,77090.25
2023-05-07T07:51:05.083Z,77012.66
2023-05-07T07:58:40.455Z,76957.53
2023-05-07T08:14:07.067Z,76779.94
2023-05-07T08:21:41.964Z,76755.44
2023-05-07T08:29:16.969Z,76777.91
2023-05-07T08:36:50.940Z,76718.69
2023-05-07T08:44:29.084Z,76712.56
2023-05-07T08:52:03.696Z,76714.63
2023-05-07T08:59:39.076Z,76698.28
2023-05-07T09:07:12.918Z,76690.13
2023-05-07T09:14:48.172Z,76643.19
2023-05-07T09:22:22.101Z,76671.75
2023-05-07T09:29:57.657Z,76649.28
2023-05-07T09:37:33.152Z,76665.63
2023-05-07T09:45:10.679Z,76641.13
2023-05-07T09:52:46.091Z,76663.59
2023-05-07T10:00:22.966Z,76686.03
2023-05-07T10:08:03.981Z,76659.50
2023-05-07T10:15:40.668Z,76635.00
2023-05-07T10:23:19.780Z,76626.84
2023-05-07T10:31:11.904Z,76630.94
2023-05-07T10:38:45.944Z,76661.53
2023-05-07T10:46:22.781Z,76647.25
2023-05-07T10:54:21.217Z,76635.00
2023-05-07T11:01:59.134Z,76641.13
2023-05-07T11:09:59.495Z,76573.78
2023-05-07T11:17:37.286Z,76563.56
2023-05-07T11:25:11.783Z,76528.88
2023-05-07T11:32:50.215Z,76547.25
2023-05-07T11:40:24.275Z,76541.13
2023-05-07T11:47:59.736Z,76555.41
2023-05-07T11:55:33.822Z,76471.72
2023-05-07T12:03:10.227Z,76437.00
2023-05-07T12:18:41.161Z,76412.53
2023-05-07T12:26:15.109Z,76371.69
2023-05-07T12:33:50.809Z,76375.78
2023-05-07T12:41:28.094Z,76367.63
2023-05-07T12:57:02.782Z,76381.91
2023-05-07T13:04:38.449Z,76390.06
2023-05-07T13:12:12.317Z,76408.44
2023-05-07T13:19:47.528Z,76416.59
2023-05-07T13:27:21.554Z,76416.59
2023-05-07T13:34:56.845Z,76416.59
2023-05-07T13:42:30.757Z,76416.59
2023-05-07T13:50:07.116Z,76357.41
2023-05-07T13:57:41.267Z,76332.91
2023-05-07T14:05:16.720Z,76334.97
2023-05-07T14:20:47.623Z,76353.31
2023-05-07T14:28:21.539Z,76314.53
2023-05-07T14:35:56.704Z,76298.22
2023-05-07T14:43:30.555Z,76269.66
2023-05-07T14:51:05.858Z,76292.09
2023-05-07T14:58:43.676Z,76261.47
2023-05-07T15:06:18.865Z,76296.19
2023-05-07T15:13:52.787Z,76257.41
2023-05-07T15:21:28.791Z,76261.47
2023-05-07T15:29:04.258Z,76279.84
2023-05-07T15:36:39.610Z,76310.47
2023-05-07T15:44:13.610Z,76367.63
2023-05-07T15:51:48.942Z,76381.91
2023-05-07T15:59:22.839Z,76343.13
2023-05-07T16:06:58.506Z,76388.03
2023-05-07T16:14:32.469Z,76343.13
2023-05-07T16:22:07.620Z,76345.16
2023-05-07T16:29:41.565Z,76363.53
2023-05-07T16:45:09.620Z,76510.50
2023-05-07T16:52:45.080Z,76502.34
2023-05-07T17:00:23.478Z,76547.25
2023-05-07T17:07:59.447Z,76571.72
2023-05-07T17:23:26.322Z,76590.09
2023-05-07T17:31:00.328Z,76647.25
2023-05-07T17:38:46.901Z,76669.72
2023-05-07T17:46:21.150Z,76681.97
2023-05-07T17:53:56.931Z,76694.22
2023-05-07T18:01:31.434Z,76704.41
2023-05-07T18:09:07.470Z,76724.81
2023-05-07T18:16:41.552Z,76733.00
2023-05-07T18:24:16.810Z,76743.19
2023-05-07T18:39:44.484Z,76788.09
2023-05-07T18:47:18.562Z,76812.59
2023-05-07T18:54:53.790Z,76830.97
2023-05-07T19:18:11.976Z,76902.44
2023-05-07T19:25:49.000Z,76916.72
2023-05-07T19:33:24.319Z,76931.00
2023-05-07T19:41:00.603Z,76959.59
2023-05-07T19:48:34.559Z,76990.22
2023-05-07T19:56:11.690Z,77029.00
2023-05-07T20:03:46.386Z,77051.44
2023-05-07T20:11:21.601Z,77086.16
2023-05-07T20:18:55.315Z,77118.81
2023-05-07T20:26:30.358Z,77161.69
2023-05-07T20:34:03.992Z,77194.34
2023-05-07T20:41:39.156Z,77225.00
2023-05-07T20:49:13.089Z,77245.41
2023-05-07T20:56:48.202Z,77261.72
2023-05-07T21:04:21.981Z,77276.03
2023-05-07T21:11:57.964Z,77304.59
2023-05-07T21:19:31.701Z,77333.19
2023-05-07T21:27:06.822Z,77345.44
2023-05-07T21:34:40.575Z,77357.69
2023-05-07T21:42:15.717Z,77355.66
2023-05-07T21:49:49.464Z,77380.16
2023-05-07T21:57:24.527Z,77390.34
2023-05-07T22:04:58.273Z,77402.59
2023-05-07T22:12:33.664Z,77410.78
2023-05-07T22:20:08.992Z,77425.06
2023-05-07T22:27:44.722Z,77437.31
2023-05-07T22:35:18.390Z,77453.66
2023-05-07T22:42:53.486Z,77472.03
2023-05-07T22:50:27.189Z,77476.13
2023-05-07T22:58:02.250Z,77494.50
2023-05-07T23:05:36.206Z,77500.63
2023-05-07T23:13:17.058Z,77498.56
2023-05-07T23:20:51.071Z,77521.03
2023-05-07T23:28:26.254Z,77533.28
2023-05-07T23:36:00.769Z,77531.25
2023-05-07T23:43:36.470Z,77547.56
2023-05-07T23:51:10.414Z,77545.53
2023-05-07T23:58:45.719Z,77547.56
